sensor_id;sensor_type;location;lat;lon;timestamp;P1;durP1;ratioP1;P2;durP2;ratioP2
5831;SDS011;50943;51.448;7.646;2023-01-26T00:01:52;55.73;;;17.20;;
5831;SDS011;50943;51.448;7.646;2023-01-26T00:04:19;53.97;;;18.10;;
5831;SDS011;50943;51.448;7.646;2023-01-26T00:06:46;45.40;;;17.60;;
5831;SDS011;50943;51.448;7.646;2023-01-26T00:09:12;57.20;;;17.50;;
5831;SDS011;50943;51.448;7.646;2023-01-26T00:11:39;51.30;;;17.07;;
5831;SDS011;50943;51.448;7.646;2023-01-26T00:14:06;52.70;;;18.27;;
5831;SDS011;50943;51.448;7.646;2023-01-26T00:16:34;55.73;;;17.80;;
5831;SDS011;50943;51.448;7.646;2023-01-26T00:19:00;57.73;;;19.80;;
5831;SDS011;50943;51.448;7.646;2023-01-26T00:21:27;65.63;;;21.77;;
5831;SDS011;50943;51.448;7.646;2023-01-26T00:23:54;68.43;;;22.90;;
5831;SDS011;50943;51.448;7.646;2023-01-26T00:26:21;73.13;;;22.67;;
5831;SDS011;50943;51.448;7.646;2023-01-26T00:28:49;70.17;;;22.20;;
5831;SDS011;50943;51.448;7.646;2023-01-26T00:31:17;70.13;;;23.60;;
5831;SDS011;50943;51.448;7.646;2023-01-26T00:33:45;66.77;;;23.37;;
5831;SDS011;50943;51.448;7.646;2023-01-26T00:36:12;85.90;;;25.00;;
5831;SDS011;50943;51.448;7.646;2023-01-26T00:38:39;72.07;;;23.37;;
5831;SDS011;50943;51.448;7.646;2023-01-26T00:41:06;76.37;;;23.63;;
5831;SDS011;50943;51.448;7.646;2023-01-26T00:43:33;74.73;;;24.27;;
5831;SDS011;50943;51.448;7.646;2023-01-26T00:45:59;72.97;;;23.47;;
5831;SDS011;50943;51.448;7.646;2023-01-26T00:48:26;71.63;;;23.80;;
5831;SDS011;50943;51.448;7.646;2023-01-26T00:50:54;76.93;;;23.70;;
5831;SDS011;50943;51.448;7.646;2023-01-26T00:53:20;66.57;;;24.00;;
5831;SDS011;50943;51.448;7.646;2023-01-26T00:55:47;79.60;;;23.63;;
5831;SDS011;50943;51.448;7.646;2023-01-26T00:58:13;77.03;;;23.80;;
5831;SDS011;50943;51.448;7.646;2023-01-26T01:00:40;61.90;;;22.10;;
5831;SDS011;50943;51.448;7.646;2023-01-26T01:03:06;86.50;;;24.27;;
5831;SDS011;50943;51.448;7.646;2023-01-26T01:05:33;68.70;;;23.47;;
5831;SDS011;50943;51.448;7.646;2023-01-26T01:08:01;69.20;;;23.30;;
5831;SDS011;50943;51.448;7.646;2023-01-26T01:10:28;73.60;;;25.20;;
5831;SDS011;50943;51.448;7.646;2023-01-26T01:12:54;66.77;;;22.70;;
5831;SDS011;50943;51.448;7.646;2023-01-26T01:15:21;64.30;;;21.00;;
5831;SDS011;50943;51.448;7.646;2023-01-26T01:17:48;67.73;;;21.00;;
5831;SDS011;50943;51.448;7.646;2023-01-26T01:20:14;66.83;;;20.70;;
5831;SDS011;50943;51.448;7.646;2023-01-26T01:22:41;74.13;;;20.50;;
5831;SDS011;50943;51.448;7.646;2023-01-26T01:25:09;62.17;;;20.10;;
5831;SDS011;50943;51.448;7.646;2023-01-26T01:27:35;60.27;;;18.70;;
5831;SDS011;50943;51.448;7.646;2023-01-26T01:30:02;66.50;;;20.23;;
5831;SDS011;50943;51.448;7.646;2023-01-26T01:32:32;66.40;;;20.67;;
5831;SDS011;50943;51.448;7.646;2023-01-26T01:34:59;61.57;;;18.43;;
5831;SDS011;50943;51.448;7.646;2023-01-26T01:37:27;67.20;;;19.10;;
5831;SDS011;50943;51.448;7.646;2023-01-26T01:39:54;70.00;;;19.17;;
5831;SDS011;50943;51.448;7.646;2023-01-26T01:42:22;62.07;;;20.90;;
5831;SDS011;50943;51.448;7.646;2023-01-26T01:47:48;53.07;;;18.07;;
5831;SDS011;50943;51.448;7.646;2023-01-26T01:50:15;61.03;;;19.87;;
5831;SDS011;50943;51.448;7.646;2023-01-26T01:52:42;54.03;;;17.53;;
5831;SDS011;50943;51.448;7.646;2023-01-26T01:55:09;61.67;;;18.67;;
5831;SDS011;50943;51.448;7.646;2023-01-26T01:57:40;62.37;;;17.77;;
5831;SDS011;50943;51.448;7.646;2023-01-26T02:00:10;65.03;;;18.63;;
5831;SDS011;50943;51.448;7.646;2023-01-26T02:02:38;60.10;;;18.90;;
5831;SDS011;50943;51.448;7.646;2023-01-26T02:05:07;57.70;;;20.33;;
5831;SDS011;50943;51.448;7.646;2023-01-26T02:07:38;59.23;;;19.00;;
5831;SDS011;50943;51.448;7.646;2023-01-26T02:10:05;70.47;;;21.33;;
5831;SDS011;50943;51.448;7.646;2023-01-26T02:12:45;60.50;;;18.20;;
5831;SDS011;50943;51.448;7.646;2023-01-26T02:15:13;66.70;;;18.23;;
5831;SDS011;50943;51.448;7.646;2023-01-26T02:17:39;71.27;;;18.50;;
5831;SDS011;50943;51.448;7.646;2023-01-26T02:20:07;63.60;;;19.50;;
5831;SDS011;50943;51.448;7.646;2023-01-26T02:22:40;53.10;;;18.30;;
5831;SDS011;50943;51.448;7.646;2023-01-26T02:25:15;64.37;;;18.40;;
5831;SDS011;50943;51.448;7.646;2023-01-26T02:27:46;70.53;;;19.83;;
5831;SDS011;50943;51.448;7.646;2023-01-26T02:30:13;64.20;;;20.70;;
5831;SDS011;50943;51.448;7.646;2023-01-26T02:32:40;68.80;;;21.40;;
5831;SDS011;50943;51.448;7.646;2023-01-26T02:35:07;70.43;;;19.77;;
5831;SDS011;50943;51.448;7.646;2023-01-26T02:37:34;70.10;;;19.33;;
5831;SDS011;50943;51.448;7.646;2023-01-26T02:40:01;63.27;;;18.73;;
5831;SDS011;50943;51.448;7.646;2023-01-26T02:42:30;63.63;;;20.13;;
5831;SDS011;50943;51.448;7.646;2023-01-26T02:45:10;63.83;;;18.47;;
5831;SDS011;50943;51.448;7.646;2023-01-26T02:47:38;74.17;;;18.53;;
5831;SDS011;50943;51.448;7.646;2023-01-26T02:50:05;61.50;;;17.80;;
5831;SDS011;50943;51.448;7.646;2023-01-26T02:52:31;54.67;;;18.70;;
5831;SDS011;50943;51.448;7.646;2023-01-26T02:54:58;51.90;;;17.90;;
5831;SDS011;50943;51.448;7.646;2023-01-26T02:57:42;60.67;;;19.00;;
5831;SDS011;50943;51.448;7.646;2023-01-26T03:00:11;56.37;;;19.00;;
5831;SDS011;50943;51.448;7.646;2023-01-26T03:02:39;72.20;;;21.53;;
5831;SDS011;50943;51.448;7.646;2023-01-26T03:05:06;62.00;;;20.00;;
5831;SDS011;50943;51.448;7.646;2023-01-26T03:07:33;66.70;;;19.87;;
5831;SDS011;50943;51.448;7.646;2023-01-26T03:10:00;63.57;;;19.33;;
5831;SDS011;50943;51.448;7.646;2023-01-26T03:12:27;57.97;;;18.90;;
5831;SDS011;50943;51.448;7.646;2023-01-26T03:14:53;60.90;;;17.77;;
5831;SDS011;50943;51.448;7.646;2023-01-26T03:17:35;65.10;;;18.70;;
5831;SDS011;50943;51.448;7.646;2023-01-26T03:20:02;64.90;;;18.53;;
5831;SDS011;50943;51.448;7.646;2023-01-26T03:22:48;68.80;;;18.80;;
5831;SDS011;50943;51.448;7.646;2023-01-26T03:25:35;65.97;;;19.30;;
5831;SDS011;50943;51.448;7.646;2023-01-26T03:28:19;50.77;;;14.90;;
5831;SDS011;50943;51.448;7.646;2023-01-26T03:30:46;56.87;;;16.00;;
5831;SDS011;50943;51.448;7.646;2023-01-26T03:33:15;51.40;;;16.50;;
5831;SDS011;50943;51.448;7.646;2023-01-26T03:35:41;49.83;;;16.20;;
5831;SDS011;50943;51.448;7.646;2023-01-26T03:38:08;57.90;;;16.40;;
5831;SDS011;50943;51.448;7.646;2023-01-26T03:40:35;52.90;;;16.00;;
5831;SDS011;50943;51.448;7.646;2023-01-26T03:43:19;52.07;;;16.80;;
5831;SDS011;50943;51.448;7.646;2023-01-26T03:46:03;59.37;;;16.80;;
5831;SDS011;50943;51.448;7.646;2023-01-26T03:48:49;46.53;;;14.80;;
5831;SDS011;50943;51.448;7.646;2023-01-26T03:51:33;51.40;;;15.43;;
5831;SDS011;50943;51.448;7.646;2023-01-26T03:54:17;55.70;;;16.50;;
5831;SDS011;50943;51.448;7.646;2023-01-26T03:57:01;60.57;;;15.73;;
5831;SDS011;50943;51.448;7.646;2023-01-26T03:59:28;64.47;;;18.37;;
5831;SDS011;50943;51.448;7.646;2023-01-26T04:02:03;57.30;;;17.43;;
5831;SDS011;50943;51.448;7.646;2023-01-26T04:04:48;58.27;;;16.13;;
5831;SDS011;50943;51.448;7.646;2023-01-26T04:07:33;56.43;;;16.20;;
5831;SDS011;50943;51.448;7.646;2023-01-26T04:10:17;52.17;;;16.00;;
5831;SDS011;50943;51.448;7.646;2023-01-26T04:12:43;54.67;;;17.90;;
5831;SDS011;50943;51.448;7.646;2023-01-26T04:15:24;59.03;;;15.77;;
5831;SDS011;50943;51.448;7.646;2023-01-26T04:18:08;63.83;;;18.47;;
5831;SDS011;50943;51.448;7.646;2023-01-26T04:20:53;62.77;;;16.73;;
5831;SDS011;50943;51.448;7.646;2023-01-26T04:23:37;54.83;;;16.70;;
5831;SDS011;50943;51.448;7.646;2023-01-26T04:26:04;57.20;;;14.87;;
5831;SDS011;50943;51.448;7.646;2023-01-26T04:28:31;51.73;;;16.73;;
5831;SDS011;50943;51.448;7.646;2023-01-26T04:30:57;53.50;;;16.00;;
5831;SDS011;50943;51.448;7.646;2023-01-26T04:33:24;52.53;;;16.17;;
5831;SDS011;50943;51.448;7.646;2023-01-26T04:35:50;54.07;;;16.57;;
5831;SDS011;50943;51.448;7.646;2023-01-26T04:38:18;54.63;;;17.10;;
5831;SDS011;50943;51.448;7.646;2023-01-26T04:40:51;61.87;;;17.77;;
5831;SDS011;50943;51.448;7.646;2023-01-26T04:43:20;49.77;;;16.63;;
5831;SDS011;50943;51.448;7.646;2023-01-26T04:45:55;56.27;;;15.73;;
5831;SDS011;50943;51.448;7.646;2023-01-26T04:48:22;56.57;;;16.60;;
5831;SDS011;50943;51.448;7.646;2023-01-26T04:50:52;63.30;;;17.70;;
5831;SDS011;50943;51.448;7.646;2023-01-26T04:53:20;54.10;;;17.03;;
5831;SDS011;50943;51.448;7.646;2023-01-26T04:55:46;69.13;;;19.10;;
5831;SDS011;50943;51.448;7.646;2023-01-26T04:58:13;54.27;;;17.60;;
5831;SDS011;50943;51.448;7.646;2023-01-26T05:00:39;60.97;;;16.97;;
5831;SDS011;50943;51.448;7.646;2023-01-26T05:03:06;53.97;;;17.17;;
5831;SDS011;50943;51.448;7.646;2023-01-26T05:05:34;58.43;;;19.30;;
5831;SDS011;50943;51.448;7.646;2023-01-26T05:08:01;63.17;;;18.67;;
5831;SDS011;50943;51.448;7.646;2023-01-26T05:10:29;55.03;;;17.63;;
5831;SDS011;50943;51.448;7.646;2023-01-26T05:12:55;58.47;;;19.60;;
5831;SDS011;50943;51.448;7.646;2023-01-26T05:15:22;57.60;;;18.67;;
5831;SDS011;50943;51.448;7.646;2023-01-26T05:17:48;57.13;;;17.93;;
5831;SDS011;50943;51.448;7.646;2023-01-26T05:20:15;56.50;;;16.07;;
5831;SDS011;50943;51.448;7.646;2023-01-26T05:22:42;63.83;;;17.67;;
5831;SDS011;50943;51.448;7.646;2023-01-26T05:25:08;52.73;;;16.57;;
5831;SDS011;50943;51.448;7.646;2023-01-26T05:27:36;68.23;;;20.00;;
5831;SDS011;50943;51.448;7.646;2023-01-26T05:30:03;52.73;;;17.17;;
5831;SDS011;50943;51.448;7.646;2023-01-26T05:32:30;60.73;;;18.00;;
5831;SDS011;50943;51.448;7.646;2023-01-26T05:34:57;66.70;;;18.63;;
5831;SDS011;50943;51.448;7.646;2023-01-26T05:37:24;61.73;;;17.70;;
5831;SDS011;50943;51.448;7.646;2023-01-26T05:39:51;60.87;;;19.00;;
5831;SDS011;50943;51.448;7.646;2023-01-26T05:42:17;64.73;;;18.53;;
5831;SDS011;50943;51.448;7.646;2023-01-26T05:44:45;67.60;;;19.63;;
5831;SDS011;50943;51.448;7.646;2023-01-26T05:47:11;69.87;;;19.53;;
5831;SDS011;50943;51.448;7.646;2023-01-26T05:49:39;69.57;;;19.53;;
5831;SDS011;50943;51.448;7.646;2023-01-26T05:52:07;56.00;;;18.23;;
5831;SDS011;50943;51.448;7.646;2023-01-26T05:54:34;60.47;;;17.90;;
5831;SDS011;50943;51.448;7.646;2023-01-26T05:57:01;50.47;;;17.97;;
5831;SDS011;50943;51.448;7.646;2023-01-26T05:59:27;64.03;;;19.30;;
5831;SDS011;50943;51.448;7.646;2023-01-26T06:01:55;63.67;;;19.03;;
5831;SDS011;50943;51.448;7.646;2023-01-26T06:04:22;57.30;;;18.80;;
5831;SDS011;50943;51.448;7.646;2023-01-26T06:06:50;65.67;;;19.80;;
5831;SDS011;50943;51.448;7.646;2023-01-26T06:09:17;55.90;;;17.77;;
5831;SDS011;50943;51.448;7.646;2023-01-26T06:11:44;61.50;;;19.03;;
5831;SDS011;50943;51.448;7.646;2023-01-26T06:14:10;64.67;;;19.63;;
5831;SDS011;50943;51.448;7.646;2023-01-26T06:16:37;57.87;;;17.80;;
5831;SDS011;50943;51.448;7.646;2023-01-26T06:19:05;62.90;;;20.23;;
5831;SDS011;50943;51.448;7.646;2023-01-26T06:21:32;66.87;;;21.10;;
5831;SDS011;50943;51.448;7.646;2023-01-26T06:23:58;61.13;;;19.23;;
5831;SDS011;50943;51.448;7.646;2023-01-26T06:26:25;61.77;;;20.07;;
5831;SDS011;50943;51.448;7.646;2023-01-26T06:28:52;51.93;;;15.83;;
5831;SDS011;50943;51.448;7.646;2023-01-26T06:31:19;63.77;;;20.60;;
5831;SDS011;50943;51.448;7.646;2023-01-26T06:33:48;62.33;;;18.27;;
5831;SDS011;50943;51.448;7.646;2023-01-26T06:36:16;72.07;;;21.87;;
5831;SDS011;50943;51.448;7.646;2023-01-26T06:38:44;66.73;;;19.77;;
5831;SDS011;50943;51.448;7.646;2023-01-26T06:41:11;71.50;;;20.40;;
5831;SDS011;50943;51.448;7.646;2023-01-26T06:43:38;61.30;;;18.90;;
5831;SDS011;50943;51.448;7.646;2023-01-26T06:46:04;55.17;;;18.80;;
5831;SDS011;50943;51.448;7.646;2023-01-26T06:48:32;66.73;;;21.00;;
5831;SDS011;50943;51.448;7.646;2023-01-26T06:54:04;66.23;;;18.20;;
5831;SDS011;50943;51.448;7.646;2023-01-26T06:56:30;56.77;;;18.50;;
5831;SDS011;50943;51.448;7.646;2023-01-26T06:58:57;61.73;;;18.80;;
5831;SDS011;50943;51.448;7.646;2023-01-26T07:01:24;56.40;;;18.50;;
5831;SDS011;50943;51.448;7.646;2023-01-26T07:03:52;58.97;;;18.00;;
5831;SDS011;50943;51.448;7.646;2023-01-26T07:06:19;53.43;;;16.43;;
5831;SDS011;50943;51.448;7.646;2023-01-26T07:08:48;60.53;;;18.77;;
5831;SDS011;50943;51.448;7.646;2023-01-26T07:11:14;64.03;;;18.30;;
5831;SDS011;50943;51.448;7.646;2023-01-26T07:13:41;60.13;;;18.57;;
5831;SDS011;50943;51.448;7.646;2023-01-26T07:16:09;61.83;;;18.53;;
5831;SDS011;50943;51.448;7.646;2023-01-26T07:18:36;57.93;;;18.57;;
5831;SDS011;50943;51.448;7.646;2023-01-26T07:21:03;73.07;;;18.63;;
5831;SDS011;50943;51.448;7.646;2023-01-26T07:23:32;63.27;;;18.80;;
5831;SDS011;50943;51.448;7.646;2023-01-26T07:26:00;64.90;;;18.20;;
5831;SDS011;50943;51.448;7.646;2023-01-26T07:28:26;61.53;;;18.83;;
5831;SDS011;50943;51.448;7.646;2023-01-26T07:30:56;62.67;;;20.33;;
5831;SDS011;50943;51.448;7.646;2023-01-26T07:33:22;64.27;;;20.67;;
5831;SDS011;50943;51.448;7.646;2023-01-26T07:35:51;79.10;;;21.73;;
5831;SDS011;50943;51.448;7.646;2023-01-26T07:38:17;69.03;;;21.90;;
5831;SDS011;50943;51.448;7.646;2023-01-26T07:40:44;66.93;;;18.93;;
5831;SDS011;50943;51.448;7.646;2023-01-26T07:43:12;71.83;;;20.70;;
5831;SDS011;50943;51.448;7.646;2023-01-26T07:45:43;61.20;;;19.27;;
5831;SDS011;50943;51.448;7.646;2023-01-26T07:48:10;63.63;;;20.40;;
5831;SDS011;50943;51.448;7.646;2023-01-26T07:50:37;70.87;;;20.10;;
5831;SDS011;50943;51.448;7.646;2023-01-26T07:53:03;70.60;;;20.80;;
5831;SDS011;50943;51.448;7.646;2023-01-26T07:55:30;78.00;;;21.23;;
5831;SDS011;50943;51.448;7.646;2023-01-26T07:57:57;68.80;;;18.67;;
5831;SDS011;50943;51.448;7.646;2023-01-26T08:00:25;62.23;;;19.43;;
5831;SDS011;50943;51.448;7.646;2023-01-26T08:02:51;67.57;;;19.73;;
5831;SDS011;50943;51.448;7.646;2023-01-26T08:05:18;68.10;;;20.70;;
5831;SDS011;50943;51.448;7.646;2023-01-26T08:07:44;70.63;;;21.30;;
5831;SDS011;50943;51.448;7.646;2023-01-26T08:10:11;65.67;;;19.37;;
5831;SDS011;50943;51.448;7.646;2023-01-26T08:12:38;59.30;;;19.07;;
5831;SDS011;50943;51.448;7.646;2023-01-26T08:15:05;62.40;;;18.67;;
5831;SDS011;50943;51.448;7.646;2023-01-26T08:17:34;58.93;;;19.30;;
5831;SDS011;50943;51.448;7.646;2023-01-26T08:20:00;65.73;;;19.60;;
5831;SDS011;50943;51.448;7.646;2023-01-26T08:22:27;65.40;;;19.00;;
5831;SDS011;50943;51.448;7.646;2023-01-26T08:24:54;69.17;;;18.23;;
5831;SDS011;50943;51.448;7.646;2023-01-26T08:27:20;61.20;;;18.73;;
5831;SDS011;50943;51.448;7.646;2023-01-26T08:29:47;65.93;;;20.50;;
5831;SDS011;50943;51.448;7.646;2023-01-26T08:32:15;69.27;;;20.70;;
5831;SDS011;50943;51.448;7.646;2023-01-26T08:34:43;62.17;;;22.27;;
5831;SDS011;50943;51.448;7.646;2023-01-26T08:37:09;74.07;;;26.03;;
5831;SDS011;50943;51.448;7.646;2023-01-26T08:39:36;71.73;;;23.93;;
5831;SDS011;50943;51.448;7.646;2023-01-26T08:42:02;60.73;;;20.60;;
5831;SDS011;50943;51.448;7.646;2023-01-26T08:44:29;55.10;;;19.43;;
5831;SDS011;50943;51.448;7.646;2023-01-26T08:46:56;59.50;;;17.30;;
5831;SDS011;50943;51.448;7.646;2023-01-26T08:49:22;55.37;;;18.40;;
5831;SDS011;50943;51.448;7.646;2023-01-26T08:51:50;49.47;;;16.97;;
5831;SDS011;50943;51.448;7.646;2023-01-26T08:54:16;66.80;;;19.93;;
5831;SDS011;50943;51.448;7.646;2023-01-26T08:56:43;64.77;;;19.90;;
5831;SDS011;50943;51.448;7.646;2023-01-26T08:59:09;61.77;;;19.60;;
5831;SDS011;50943;51.448;7.646;2023-01-26T09:01:36;60.73;;;20.50;;
5831;SDS011;50943;51.448;7.646;2023-01-26T09:04:02;61.10;;;19.03;;
5831;SDS011;50943;51.448;7.646;2023-01-26T09:06:29;69.87;;;21.43;;
5831;SDS011;50943;51.448;7.646;2023-01-26T09:08:58;68.13;;;22.20;;
5831;SDS011;50943;51.448;7.646;2023-01-26T09:11:25;66.73;;;22.53;;
5831;SDS011;50943;51.448;7.646;2023-01-26T09:13:51;58.33;;;19.57;;
5831;SDS011;50943;51.448;7.646;2023-01-26T09:16:20;67.30;;;19.83;;
5831;SDS011;50943;51.448;7.646;2023-01-26T09:18:48;55.67;;;19.30;;
5831;SDS011;50943;51.448;7.646;2023-01-26T09:21:15;57.43;;;18.70;;
5831;SDS011;50943;51.448;7.646;2023-01-26T09:23:41;66.30;;;20.67;;
5831;SDS011;50943;51.448;7.646;2023-01-26T09:26:09;60.10;;;20.67;;
5831;SDS011;50943;51.448;7.646;2023-01-26T09:28:36;69.60;;;22.00;;
5831;SDS011;50943;51.448;7.646;2023-01-26T09:31:03;60.97;;;18.90;;
5831;SDS011;50943;51.448;7.646;2023-01-26T09:33:30;62.80;;;19.47;;
5831;SDS011;50943;51.448;7.646;2023-01-26T09:36:00;72.43;;;21.43;;
5831;SDS011;50943;51.448;7.646;2023-01-26T09:38:28;63.70;;;19.27;;
5831;SDS011;50943;51.448;7.646;2023-01-26T09:40:56;70.77;;;22.17;;
5831;SDS011;50943;51.448;7.646;2023-01-26T09:43:31;74.77;;;21.10;;
5831;SDS011;50943;51.448;7.646;2023-01-26T09:46:04;62.13;;;20.03;;
5831;SDS011;50943;51.448;7.646;2023-01-26T09:48:43;64.50;;;19.43;;
5831;SDS011;50943;51.448;7.646;2023-01-26T09:51:15;68.77;;;21.67;;
5831;SDS011;50943;51.448;7.646;2023-01-26T09:53:49;72.83;;;19.97;;
5831;SDS011;50943;51.448;7.646;2023-01-26T09:56:19;58.30;;;19.73;;
5831;SDS011;50943;51.448;7.646;2023-01-26T09:58:50;62.67;;;19.57;;
5831;SDS011;50943;51.448;7.646;2023-01-26T10:01:23;65.33;;;20.03;;
5831;SDS011;50943;51.448;7.646;2023-01-26T10:03:55;59.53;;;20.60;;
5831;SDS011;50943;51.448;7.646;2023-01-26T10:06:26;55.00;;;18.20;;
5831;SDS011;50943;51.448;7.646;2023-01-26T10:08:56;59.63;;;18.90;;
5831;SDS011;50943;51.448;7.646;2023-01-26T10:11:25;66.37;;;18.23;;
5831;SDS011;50943;51.448;7.646;2023-01-26T10:13:55;54.83;;;18.60;;
5831;SDS011;50943;51.448;7.646;2023-01-26T10:16:24;63.77;;;19.27;;
5831;SDS011;50943;51.448;7.646;2023-01-26T10:18:52;58.13;;;18.83;;
5831;SDS011;50943;51.448;7.646;2023-01-26T10:21:22;61.53;;;18.50;;
5831;SDS011;50943;51.448;7.646;2023-01-26T10:23:51;65.67;;;20.33;;
5831;SDS011;50943;51.448;7.646;2023-01-26T10:26:18;58.87;;;18.43;;
5831;SDS011;50943;51.448;7.646;2023-01-26T10:28:46;50.17;;;16.90;;
5831;SDS011;50943;51.448;7.646;2023-01-26T10:31:15;61.10;;;18.07;;
5831;SDS011;50943;51.448;7.646;2023-01-26T10:33:46;53.73;;;17.20;;
5831;SDS011;50943;51.448;7.646;2023-01-26T10:36:15;58.73;;;17.63;;
5831;SDS011;50943;51.448;7.646;2023-01-26T10:38:42;49.70;;;17.03;;
5831;SDS011;50943;51.448;7.646;2023-01-26T10:41:20;55.10;;;16.27;;
5831;SDS011;50943;51.448;7.646;2023-01-26T10:43:49;59.80;;;17.70;;
5831;SDS011;50943;51.448;7.646;2023-01-26T10:46:29;57.60;;;17.10;;
5831;SDS011;50943;51.448;7.646;2023-01-26T10:48:58;52.83;;;17.53;;
5831;SDS011;50943;51.448;7.646;2023-01-26T10:51:26;59.47;;;17.77;;
5831;SDS011;50943;51.448;7.646;2023-01-26T10:56:45;48.70;;;16.50;;
5831;SDS011;50943;51.448;7.646;2023-01-26T10:59:13;48.93;;;15.63;;
5831;SDS011;50943;51.448;7.646;2023-01-26T11:01:52;49.93;;;16.10;;
5831;SDS011;50943;51.448;7.646;2023-01-26T11:04:20;55.33;;;16.37;;
5831;SDS011;50943;51.448;7.646;2023-01-26T11:06:49;51.20;;;17.27;;
5831;SDS011;50943;51.448;7.646;2023-01-26T11:09:20;49.03;;;16.77;;
5831;SDS011;50943;51.448;7.646;2023-01-26T11:11:55;46.77;;;15.80;;
5831;SDS011;50943;51.448;7.646;2023-01-26T11:14:24;46.43;;;15.30;;
5831;SDS011;50943;51.448;7.646;2023-01-26T11:16:55;50.03;;;16.10;;
5831;SDS011;50943;51.448;7.646;2023-01-26T11:22:14;41.53;;;13.80;;
5831;SDS011;50943;51.448;7.646;2023-01-26T11:24:44;48.03;;;16.60;;
5831;SDS011;50943;51.448;7.646;2023-01-26T11:30:10;41.27;;;14.07;;
5831;SDS011;50943;51.448;7.646;2023-01-26T11:32:49;51.60;;;17.37;;
5831;SDS011;50943;51.448;7.646;2023-01-26T11:35:21;49.37;;;18.03;;
5831;SDS011;50943;51.448;7.646;2023-01-26T11:37:55;53.60;;;18.50;;
5831;SDS011;50943;51.448;7.646;2023-01-26T11:40:29;44.57;;;17.70;;
5831;SDS011;50943;51.448;7.646;2023-01-26T11:46:00;56.03;;;17.90;;
5831;SDS011;50943;51.448;7.646;2023-01-26T11:48:37;64.40;;;19.00;;
5831;SDS011;50943;51.448;7.646;2023-01-26T11:51:08;65.67;;;20.07;;
5831;SDS011;50943;51.448;7.646;2023-01-26T11:53:44;61.57;;;19.77;;
5831;SDS011;50943;51.448;7.646;2023-01-26T11:56:20;53.47;;;19.07;;
5831;SDS011;50943;51.448;7.646;2023-01-26T11:58:56;53.83;;;19.23;;
5831;SDS011;50943;51.448;7.646;2023-01-26T12:01:24;55.17;;;18.67;;
5831;SDS011;50943;51.448;7.646;2023-01-26T12:03:54;49.67;;;18.63;;
5831;SDS011;50943;51.448;7.646;2023-01-26T12:06:24;44.50;;;16.60;;
5831;SDS011;50943;51.448;7.646;2023-01-26T12:08:56;48.87;;;17.40;;
5831;SDS011;50943;51.448;7.646;2023-01-26T12:11:27;47.30;;;15.97;;
5831;SDS011;50943;51.448;7.646;2023-01-26T12:13:58;47.87;;;16.33;;
5831;SDS011;50943;51.448;7.646;2023-01-26T12:16:34;45.90;;;15.93;;
5831;SDS011;50943;51.448;7.646;2023-01-26T12:19:10;47.07;;;16.67;;
5831;SDS011;50943;51.448;7.646;2023-01-26T12:21:41;44.60;;;16.77;;
5831;SDS011;50943;51.448;7.646;2023-01-26T12:24:11;45.53;;;16.20;;
5831;SDS011;50943;51.448;7.646;2023-01-26T12:26:46;39.13;;;15.87;;
5831;SDS011;50943;51.448;7.646;2023-01-26T12:29:14;44.20;;;16.20;;
5831;SDS011;50943;51.448;7.646;2023-01-26T12:31:43;39.37;;;15.03;;
5831;SDS011;50943;51.448;7.646;2023-01-26T12:34:14;50.77;;;17.90;;
5831;SDS011;50943;51.448;7.646;2023-01-26T12:36:41;44.57;;;16.73;;
5831;SDS011;50943;51.448;7.646;2023-01-26T12:39:14;43.87;;;16.30;;
5831;SDS011;50943;51.448;7.646;2023-01-26T12:41:45;40.43;;;15.73;;
5831;SDS011;50943;51.448;7.646;2023-01-26T12:44:25;33.67;;;13.97;;
5831;SDS011;50943;51.448;7.646;2023-01-26T12:47:01;39.67;;;15.57;;
5831;SDS011;50943;51.448;7.646;2023-01-26T12:49:35;36.10;;;13.83;;
5831;SDS011;50943;51.448;7.646;2023-01-26T12:52:09;33.43;;;14.20;;
5831;SDS011;50943;51.448;7.646;2023-01-26T12:54:39;48.60;;;18.50;;
5831;SDS011;50943;51.448;7.646;2023-01-26T12:57:11;39.20;;;16.60;;
5831;SDS011;50943;51.448;7.646;2023-01-26T12:59:40;50.70;;;17.77;;
5831;SDS011;50943;51.448;7.646;2023-01-26T13:02:14;43.10;;;15.90;;
5831;SDS011;50943;51.448;7.646;2023-01-26T13:04:49;43.23;;;16.47;;
5831;SDS011;50943;51.448;7.646;2023-01-26T13:07:26;43.33;;;16.17;;
5831;SDS011;50943;51.448;7.646;2023-01-26T13:10:08;34.83;;;13.97;;
5831;SDS011;50943;51.448;7.646;2023-01-26T13:12:44;36.20;;;14.30;;
5831;SDS011;50943;51.448;7.646;2023-01-26T13:15:12;35.73;;;14.20;;
5831;SDS011;50943;51.448;7.646;2023-01-26T13:17:40;40.10;;;15.30;;
5831;SDS011;50943;51.448;7.646;2023-01-26T13:20:26;39.87;;;15.27;;
5831;SDS011;50943;51.448;7.646;2023-01-26T13:22:57;34.90;;;14.03;;
5831;SDS011;50943;51.448;7.646;2023-01-26T13:25:28;33.87;;;13.60;;
5831;SDS011;50943;51.448;7.646;2023-01-26T13:27:57;33.07;;;13.57;;
5831;SDS011;50943;51.448;7.646;2023-01-26T13:30:43;31.73;;;13.07;;
5831;SDS011;50943;51.448;7.646;2023-01-26T13:33:12;32.47;;;13.30;;
5831;SDS011;50943;51.448;7.646;2023-01-26T13:35:41;28.00;;;13.07;;
5831;SDS011;50943;51.448;7.646;2023-01-26T13:38:21;31.20;;;12.07;;
5831;SDS011;50943;51.448;7.646;2023-01-26T13:40:53;30.40;;;12.80;;
5831;SDS011;50943;51.448;7.646;2023-01-26T13:43:22;34.37;;;13.70;;
5831;SDS011;50943;51.448;7.646;2023-01-26T13:45:58;35.93;;;13.57;;
5831;SDS011;50943;51.448;7.646;2023-01-26T13:48:31;35.30;;;13.73;;
5831;SDS011;50943;51.448;7.646;2023-01-26T13:51:04;29.73;;;11.93;;
5831;SDS011;50943;51.448;7.646;2023-01-26T13:53:32;34.73;;;11.90;;
5831;SDS011;50943;51.448;7.646;2023-01-26T13:56:01;30.17;;;11.83;;
5831;SDS011;50943;51.448;7.646;2023-01-26T13:58:30;25.67;;;11.00;;
5831;SDS011;50943;51.448;7.646;2023-01-26T14:00:56;27.00;;;11.37;;
5831;SDS011;50943;51.448;7.646;2023-01-26T14:03:24;33.03;;;11.17;;
5831;SDS011;50943;51.448;7.646;2023-01-26T14:05:51;27.90;;;11.63;;
5831;SDS011;50943;51.448;7.646;2023-01-26T14:08:20;25.40;;;10.27;;
5831;SDS011;50943;51.448;7.646;2023-01-26T14:10:48;21.83;;;10.27;;
5831;SDS011;50943;51.448;7.646;2023-01-26T14:13:15;24.07;;;10.03;;
5831;SDS011;50943;51.448;7.646;2023-01-26T14:15:53;22.97;;;10.53;;
5831;SDS011;50943;51.448;7.646;2023-01-26T14:18:21;19.80;;;9.40;;
5831;SDS011;50943;51.448;7.646;2023-01-26T14:20:48;19.23;;;9.30;;
5831;SDS011;50943;51.448;7.646;2023-01-26T14:23:16;22.13;;;10.57;;
5831;SDS011;50943;51.448;7.646;2023-01-26T14:25:46;21.40;;;8.77;;
5831;SDS011;50943;51.448;7.646;2023-01-26T14:28:14;20.60;;;9.80;;
5831;SDS011;50943;51.448;7.646;2023-01-26T14:30:42;15.97;;;8.63;;
5831;SDS011;50943;51.448;7.646;2023-01-26T14:33:10;19.63;;;9.30;;
5831;SDS011;50943;51.448;7.646;2023-01-26T14:35:38;19.13;;;8.73;;
5831;SDS011;50943;51.448;7.646;2023-01-26T14:38:11;19.60;;;9.40;;
5831;SDS011;50943;51.448;7.646;2023-01-26T14:40:42;17.27;;;8.47;;
5831;SDS011;50943;51.448;7.646;2023-01-26T14:43:11;19.37;;;8.70;;
5831;SDS011;50943;51.448;7.646;2023-01-26T14:45:39;15.77;;;8.17;;
5831;SDS011;50943;51.448;7.646;2023-01-26T14:48:11;14.70;;;7.03;;
5831;SDS011;50943;51.448;7.646;2023-01-26T14:50:40;15.40;;;7.90;;
5831;SDS011;50943;51.448;7.646;2023-01-26T14:53:11;15.37;;;7.93;;
5831;SDS011;50943;51.448;7.646;2023-01-26T14:55:42;15.30;;;8.00;;
5831;SDS011;50943;51.448;7.646;2023-01-26T14:58:12;14.70;;;7.50;;
5831;SDS011;50943;51.448;7.646;2023-01-26T15:00:40;15.03;;;6.87;;
5831;SDS011;50943;51.448;7.646;2023-01-26T15:03:10;11.07;;;6.50;;
5831;SDS011;50943;51.448;7.646;2023-01-26T15:05:39;13.67;;;7.10;;
5831;SDS011;50943;51.448;7.646;2023-01-26T15:08:17;13.70;;;7.00;;